Time;durP1;ratioP1;P1;durP2;ratioP2;P2;SDS_P1;SDS_P2;PMS_P1;PMS_P2;Temp;Humidity;BMP_temperature;BMP_pressure;BME280_temperature;BME280_humidity;BME280_pressure;Samples;Min_cycle;Max_cycle;Signal;HPM_P1;HPM_P2
2021/07/30 00:00:09;;;;;;;;;;;16.10;99.90;;;;;;4996638;28;19925;-86
2021/07/30 00:02:35;;;;;;;;;;;16.10;99.90;;;;;;4980394;28;20339;-87
2021/07/30 00:05:01;;;;;;;;;;;16.10;99.90;;;;;;4992300;28;19926;-86
2021/07/30 00:07:26;;;;;;;;;;;16.10;99.90;;;;;;5010800;28;19929;-86
2021/07/30 00:09:52;;;;;;;;;;;16.10;99.90;;;;;;5003529;28;19922;-86
2021/07/30 00:12:19;;;;;;;;;;;16.10;99.90;;;;;;5000938;28;20008;-86
2021/07/30 00:14:45;;;;;;;;;;;16.10;99.90;;;;;;5021769;28;19923;-86
2021/07/30 00:17:11;;;;;;;;;;;16.10;99.90;;;;;;5001919;28;19979;-86
2021/07/30 00:19:37;;;;;;;;;;;16.10;99.90;;;;;;4987427;28;20723;-86
2021/07/30 00:22:03;;;;;;;;;;;16.10;99.90;;;;;;5009829;28;19929;-87
2021/07/30 00:24:29;;;;;;;;;;;16.10;99.90;;;;;;4989335;28;19928;-86
2021/07/30 00:26:54;;;;;;;;;;;16.10;99.90;;;;;;5013092;28;19925;-87
2021/07/30 00:29:20;;;;;;;;;;;16.00;99.90;;;;;;4980245;28;20335;-86
2021/07/30 00:31:46;;;;;;;;;;;16.10;99.90;;;;;;4996215;28;20015;-87
2021/07/30 00:34:11;;;;;;;;;;;16.10;99.90;;;;;;5012093;28;19925;-87
2021/07/30 00:36:37;;;;;;;;;;;16.10;99.90;;;;;;4996332;28;20711;-86
2021/07/30 00:39:03;;;;;;;;;;;16.00;99.90;;;;;;4995621;28;19933;-86
2021/07/30 00:41:28;;;;;;;;;;;16.00;99.90;;;;;;4968931;28;20431;-86
2021/07/30 00:43:54;;;;;;;;;;;16.00;99.90;;;;;;4997939;28;19925;-86
2021/07/30 00:46:20;;;;;;;;;;;16.00;99.90;;;;;;4997426;28;20400;-86
2021/07/30 00:48:46;;;;;;;;;;;16.00;99.90;;;;;;4989420;28;20431;-86
2021/07/30 00:51:13;;;;;;;;;;;16.00;99.90;;;;;;4963389;28;19926;-87
2021/07/30 00:53:39;;;;;;;;;;;16.00;99.90;;;;;;5009825;28;19961;-87
2021/07/30 00:56:05;;;;;;;;;;;16.00;99.90;;;;;;5003202;28;20419;-86
2021/07/30 00:58:31;;;;;;;;;;;16.00;99.90;;;;;;4992272;28;19929;-87
2021/07/30 01:00:57;;;;;;;;;;;16.00;99.90;;;;;;4985022;28;19926;-86
2021/07/30 01:03:23;;;;;;;;;;;16.00;99.90;;;;;;4992182;28;19925;-88
2021/07/30 01:05:49;;;;;;;;;;;16.00;99.90;;;;;;5009742;28;20334;-87
2021/07/30 01:08:15;;;;;;;;;;;16.00;99.90;;;;;;5003257;28;20416;-87
2021/07/30 01:10:40;;;;;;;;;;;16.00;99.90;;;;;;4976608;28;20370;-86
2021/07/30 01:13:06;;;;;;;;;;;16.00;99.90;;;;;;4992089;28;19937;-87
2021/07/30 01:15:32;;;;;;;;;;;16.00;99.90;;;;;;4991676;28;19928;-86
2021/07/30 01:17:58;;;;;;;;;;;16.00;99.90;;;;;;4992079;28;20283;-86
2021/07/30 01:20:24;;;;;;;;;;;16.10;99.90;;;;;;5007989;28;19929;-87
2021/07/30 01:22:55;;;;;;;;;;;16.10;99.90;;;;;;4993642;28;19926;-86
2021/07/30 01:25:21;;;;;;;;;;;16.10;99.90;;;;;;5008381;28;19921;-86
2021/07/30 01:27:47;;;;;;;;;;;16.10;99.90;;;;;;4994346;28;19976;-87
2021/07/30 01:30:14;;;;;;;;;;;16.00;99.90;;;;;;4992778;28;19967;-90
2021/07/30 01:32:39;;;;;;;;;;;16.10;99.90;;;;;;4992802;28;19968;-86
2021/07/30 01:35:05;;;;;;;;;;;16.10;99.90;;;;;;4992166;28;20325;-88
2021/07/30 01:37:31;;;;;;;;;;;16.00;99.90;;;;;;5007870;28;19930;-86
2021/07/30 01:39:57;;;;;;;;;;;16.00;99.90;;;;;;5008407;28;19921;-87
2021/07/30 01:42:23;;;;;;;;;;;16.00;99.90;;;;;;4992016;28;19925;-88
2021/07/30 01:44:51;;;;;;;;;;;16.00;99.90;;;;;;4991960;28;19983;-86
2021/07/30 01:47:17;;;;;;;;;;;16.00;99.90;;;;;;5008332;28;19972;-85
2021/07/30 01:49:43;;;;;;;;;;;16.00;99.90;;;;;;4991599;28;20607;-85
2021/07/30 01:52:08;;;;;;;;;;;16.00;99.90;;;;;;4968293;28;20008;-85
2021/07/30 01:54:34;;;;;;;;;;;16.00;99.90;;;;;;4971658;28;19926;-85
2021/07/30 01:57:00;;;;;;;;;;;16.00;99.90;;;;;;4982241;28;19968;-86
2021/07/30 01:59:25;;;;;;;;;;;15.90;99.90;;;;;;5000934;28;20024;-86
2021/07/30 02:01:51;;;;;;;;;;;16.00;99.90;;;;;;4969603;28;19922;-83
2021/07/30 02:04:18;;;;;;;;;;;15.90;99.90;;;;;;4994098;28;19922;-86
2021/07/30 02:06:44;;;;;;;;;;;15.90;99.90;;;;;;5007453;28;19992;-85
2021/07/30 02:09:10;;;;;;;;;;;15.90;99.90;;;;;;5005689;28;20037;-85
2021/07/30 02:11:36;;;;;;;;;;;15.90;99.90;;;;;;5004231;28;20606;-84
2021/07/30 02:14:17;;;;;;;;;;;15.90;99.90;;;;;;5004492;28;20660;-84
2021/07/30 02:16:46;;;;;;;;;;;15.90;99.90;;;;;;4986381;28;19926;-85
2021/07/30 02:19:13;;;;;;;;;;;15.90;99.90;;;;;;4977933;28;19930;-85
2021/07/30 02:21:39;;;;;;;;;;;15.90;99.90;;;;;;4985580;28;20441;-85
2021/07/30 02:24:05;;;;;;;;;;;15.90;99.90;;;;;;4983645;28;19929;-84
2021/07/30 02:26:31;;;;;;;;;;;15.80;99.90;;;;;;4993613;28;19922;-85
2021/07/30 02:28:57;;;;;;;;;;;15.80;99.90;;;;;;4999145;28;19925;-84
2021/07/30 02:31:23;;;;;;;;;;;15.80;99.90;;;;;;5006813;28;19933;-83
2021/07/30 02:33:51;;;;;;;;;;;15.70;99.90;;;;;;4989745;28;20032;-84
2021/07/30 02:36:17;;;;;;;;;;;15.70;99.90;;;;;;5009670;28;20028;-84
2021/07/30 02:38:42;;;;;;;;;;;15.70;99.90;;;;;;5010502;28;19964;-84
2021/07/30 02:41:08;;;;;;;;;;;15.70;99.90;;;;;;5010533;28;20012;-83
2021/07/30 02:43:34;;;;;;;;;;;15.70;99.90;;;;;;5012619;28;19921;-83
2021/07/30 02:45:59;;;;;;;;;;;15.60;99.90;;;;;;4980499;28;19929;-83
2021/07/30 02:48:25;;;;;;;;;;;15.60;99.90;;;;;;4994371;28;20471;-84
2021/07/30 02:50:51;;;;;;;;;;;15.60;99.90;;;;;;4979676;28;19925;-84
2021/07/30 02:53:16;;;;;;;;;;;15.60;99.90;;;;;;5012189;28;19921;-84
2021/07/30 02:55:42;;;;;;;;;;;15.60;99.90;;;;;;4987584;28;19925;-84
2021/07/30 02:58:08;;;;;;;;;;;15.60;99.90;;;;;;4988089;28;19926;-84
2021/07/30 03:00:34;;;;;;;;;;;15.60;99.90;;;;;;5006762;28;19925;-84
2021/07/30 03:03:00;;;;;;;;;;;15.50;99.90;;;;;;4992447;28;19922;-84
2021/07/30 03:05:25;;;;;;;;;;;15.50;99.90;;;;;;4992289;28;19918;-84
2021/07/30 03:07:51;;;;;;;;;;;15.50;99.90;;;;;;4976277;28;19949;-85
2021/07/30 03:10:20;;;;;;;;;;;15.50;99.90;;;;;;4976282;28;20411;-84
2021/07/30 03:12:45;;;;;;;;;;;15.50;99.90;;;;;;4976136;28;20343;-84
2021/07/30 03:15:11;;;;;;;;;;;15.50;99.90;;;;;;5002025;28;20669;-84
2021/07/30 03:17:37;;;;;;;;;;;15.50;99.90;;;;;;5003170;28;19925;-84
2021/07/30 03:20:05;;;;;;;;;;;15.50;99.90;;;;;;5003070;28;19931;-83
2021/07/30 03:22:31;;;;;;;;;;;15.50;99.90;;;;;;5003348;28;19926;-85
2021/07/30 03:24:58;;;;;;;;;;;15.60;99.90;;;;;;5001424;28;20445;-85
2021/07/30 03:27:24;;;;;;;;;;;15.50;99.90;;;;;;5003444;28;19936;-84
2021/07/30 03:29:50;;;;;;;;;;;15.50;99.90;;;;;;5002339;28;19929;-85
2021/07/30 03:32:15;;;;;;;;;;;15.50;99.90;;;;;;5018891;28;19940;-84
2021/07/30 03:34:41;;;;;;;;;;;15.50;99.90;;;;;;5002878;28;20411;-85
2021/07/30 03:37:07;;;;;;;;;;;15.50;99.90;;;;;;4980117;28;19932;-84
2021/07/30 03:39:33;;;;;;;;;;;15.50;99.90;;;;;;4961085;28;19988;-85
2021/07/30 03:41:58;;;;;;;;;;;15.50;99.90;;;;;;4994119;28;19922;-85
2021/07/30 03:44:24;;;;;;;;;;;15.50;99.90;;;;;;4993668;28;20417;-85
2021/07/30 03:46:50;;;;;;;;;;;15.50;99.90;;;;;;4993708;28;19930;-84
2021/07/30 03:49:18;;;;;;;;;;;15.50;99.90;;;;;;4992808;28;19952;-85
2021/07/30 03:51:43;;;;;;;;;;;15.50;99.90;;;;;;5007405;28;19968;-85
2021/07/30 03:54:09;;;;;;;;;;;15.40;99.90;;;;;;4996538;28;19925;-84
2021/07/30 03:56:37;;;;;;;;;;;15.50;99.90;;;;;;4997259;28;19934;-85
2021/07/30 03:59:03;;;;;;;;;;;15.40;99.90;;;;;;5012746;28;19929;-85
2021/07/30 04:01:28;;;;;;;;;;;15.40;99.90;;;;;;4996904;28;19921;-85
2021/07/30 04:03:54;;;;;;;;;;;15.40;99.90;;;;;;5012697;28;19925;-85
2021/07/30 04:06:20;;;;;;;;;;;15.40;99.90;;;;;;5013076;28;20017;-84
2021/07/30 04:08:45;;;;;;;;;;;15.40;99.90;;;;;;5012854;28;20516;-84
2021/07/30 04:11:11;;;;;;;;;;;15.40;99.90;;;;;;4996222;28;20382;-85
2021/07/30 04:13:37;;;;;;;;;;;15.30;99.90;;;;;;5027755;28;19921;-84
2021/07/30 04:16:03;;;;;;;;;;;15.30;99.90;;;;;;5016110;28;20454;-84
2021/07/30 04:18:29;;;;;;;;;;;15.30;99.90;;;;;;5015956;28;19944;-85
2021/07/30 04:20:54;;;;;;;;;;;15.30;99.90;;;;;;5015607;28;19925;-84
2021/07/30 04:23:20;;;;;;;;;;;15.30;99.90;;;;;;5032423;28;19925;-85
2021/07/30 04:25:46;;;;;;;;;;;15.30;99.90;;;;;;5032327;28;19951;-85
2021/07/30 04:28:12;;;;;;;;;;;15.30;99.90;;;;;;5016372;28;20562;-85
2021/07/30 04:30:38;;;;;;;;;;;15.30;99.90;;;;;;5032080;28;19955;-85
2021/07/30 04:33:04;;;;;;;;;;;15.30;99.90;;;;;;4999540;28;19968;-85
2021/07/30 04:35:29;;;;;;;;;;;15.30;99.90;;;;;;5015612;28;19924;-84
2021/07/30 04:38:01;;;;;;;;;;;15.30;99.90;;;;;;5033125;28;19924;-84
2021/07/30 04:40:28;;;;;;;;;;;15.30;99.90;;;;;;5049380;28;19920;-85
2021/07/30 04:42:57;;;;;;;;;;;15.30;99.90;;;;;;5015434;28;20733;-85
2021/07/30 04:45:23;;;;;;;;;;;15.30;99.90;;;;;;5031520;28;19975;-85
2021/07/30 04:47:48;;;;;;;;;;;15.30;99.90;;;;;;5027973;28;19924;-85
2021/07/30 04:50:14;;;;;;;;;;;15.30;99.90;;;;;;4996101;28;20578;-84
2021/07/30 04:52:40;;;;;;;;;;;15.30;99.90;;;;;;4995329;28;19983;-85
2021/07/30 04:55:06;;;;;;;;;;;15.20;99.90;;;;;;5012118;28;20439;-85
2021/07/30 04:57:32;;;;;;;;;;;15.20;99.90;;;;;;5012069;28;20047;-85
2021/07/30 04:59:57;;;;;;;;;;;15.20;99.90;;;;;;5028662;28;20039;-84
2021/07/30 05:02:24;;;;;;;;;;;15.20;99.90;;;;;;5011486;28;20372;-85
2021/07/30 05:04:52;;;;;;;;;;;15.30;99.90;;;;;;5012097;28;19932;-85
2021/07/30 05:07:18;;;;;;;;;;;15.30;99.90;;;;;;5011831;28;20004;-85
2021/07/30 05:09:44;;;;;;;;;;;15.40;99.90;;;;;;5029579;28;20056;-85
2021/07/30 05:12:22;;;;;;;;;;;15.40;99.90;;;;;;4982035;28;20273;-84
2021/07/30 05:14:47;;;;;;;;;;;15.40;99.90;;;;;;5011741;28;19982;-85
2021/07/30 05:17:13;;;;;;;;;;;15.50;99.90;;;;;;5029502;28;19933;-84
2021/07/30 05:19:39;;;;;;;;;;;15.50;99.90;;;;;;5029309;28;20008;-85
2021/07/30 05:22:04;;;;;;;;;;;15.50;99.90;;;;;;5027727;28;19991;-84
2021/07/30 05:24:35;;;;;;;;;;;15.60;99.90;;;;;;4996853;28;20056;-85
2021/07/30 05:27:02;;;;;;;;;;;15.60;99.90;;;;;;4995544;28;19935;-85
2021/07/30 05:29:28;;;;;;;;;;;15.60;99.90;;;;;;5011836;28;19925;-84
2021/07/30 05:31:54;;;;;;;;;;;15.70;99.90;;;;;;5011272;28;19960;-84
2021/07/30 05:34:20;;;;;;;;;;;15.70;99.90;;;;;;5028337;28;19925;-85
2021/07/30 05:36:50;;;;;;;;;;;15.80;99.90;;;;;;4979643;28;20327;-84
2021/07/30 05:39:16;;;;;;;;;;;15.80;99.90;;;;;;5011818;28;20016;-85
2021/07/30 05:41:42;;;;;;;;;;;15.80;99.90;;;;;;4978947;28;20028;-84
2021/07/30 05:44:08;;;;;;;;;;;15.90;99.90;;;;;;4994152;28;20365;-85
2021/07/30 05:46:37;;;;;;;;;;;15.90;99.90;;;;;;4995192;28;19925;-85
2021/07/30 05:49:03;;;;;;;;;;;16.00;99.90;;;;;;5011270;28;20466;-85
2021/07/30 05:51:37;;;;;;;;;;;16.00;99.90;;;;;;4995428;28;19925;-85
2021/07/30 05:54:03;;;;;;;;;;;16.10;99.90;;;;;;5027438;28;19932;-85
2021/07/30 05:56:28;;;;;;;;;;;16.10;99.90;;;;;;5011422;28;20388;-84
2021/07/30 05:58:54;;;;;;;;;;;16.20;99.90;;;;;;4995169;28;19929;-85
2021/07/30 06:01:20;;;;;;;;;;;16.20;99.90;;;;;;4994933;28;19929;-84
2021/07/30 06:03:45;;;;;;;;;;;16.30;99.90;;;;;;4994767;28;19921;-85
2021/07/30 06:06:11;;;;;;;;;;;16.30;99.90;;;;;;5011009;28;20347;-85
2021/07/30 06:08:37;;;;;;;;;;;16.30;99.90;;;;;;5013006;28;19944;-84
2021/07/30 06:11:03;;;;;;;;;;;16.30;99.90;;;;;;4998697;28;20018;-85
2021/07/30 06:13:29;;;;;;;;;;;16.40;99.90;;;;;;5014730;28;20483;-85
2021/07/30 06:15:55;;;;;;;;;;;16.40;99.90;;;;;;4998613;28;20445;-84
2021/07/30 06:18:20;;;;;;;;;;;16.40;99.90;;;;;;4998601;28;19929;-84
2021/07/30 06:20:46;;;;;;;;;;;16.40;99.90;;;;;;5014921;28;19977;-84
2021/07/30 06:23:12;;;;;;;;;;;16.40;99.90;;;;;;4998536;28;19927;-83
2021/07/30 06:25:37;;;;;;;;;;;16.50;99.90;;;;;;5014135;28;19921;-84
2021/07/30 06:28:04;;;;;;;;;;;16.50;99.90;;;;;;4998909;28;19983;-84
2021/07/30 06:30:29;;;;;;;;;;;16.50;99.90;;;;;;4998424;28;19925;-85
2021/07/30 06:32:55;;;;;;;;;;;16.50;99.90;;;;;;5014470;28;19925;-84
2021/07/30 06:35:21;;;;;;;;;;;16.60;99.90;;;;;;4996286;28;19956;-85
2021/07/30 06:37:46;;;;;;;;;;;16.60;99.90;;;;;;5013998;28;19933;-84
2021/07/30 06:40:12;;;;;;;;;;;16.70;99.90;;;;;;5014201;28;20027;-86
2021/07/30 06:42:38;;;;;;;;;;;16.70;99.90;;;;;;4997947;28;19932;-84
2021/07/30 06:45:05;;;;;;;;;;;16.70;99.90;;;;;;5013908;28;19936;-85
2021/07/30 06:47:32;;;;;;;;;;;16.70;99.90;;;;;;5014584;28;19925;-85
2021/07/30 06:49:58;;;;;;;;;;;16.80;99.90;;;;;;5031958;28;19920;-85
2021/07/30 06:52:23;;;;;;;;;;;16.80;99.90;;;;;;5007035;28;19926;-85
2021/07/30 06:54:52;;;;;;;;;;;16.90;99.90;;;;;;4997519;28;20147;-85
2021/07/30 06:57:18;;;;;;;;;;;17.00;99.90;;;;;;5014373;28;19929;-85
2021/07/30 06:59:44;;;;;;;;;;;17.00;99.90;;;;;;4998115;28;19932;-84
2021/07/30 07:02:09;;;;;;;;;;;17.10;99.90;;;;;;4997674;28;19936;-84
2021/07/30 07:04:35;;;;;;;;;;;17.20;99.90;;;;;;4981778;28;20007;-85
2021/07/30 07:07:01;;;;;;;;;;;17.20;99.90;;;;;;4997291;28;20391;-84
2021/07/30 07:09:26;;;;;;;;;;;17.30;99.90;;;;;;4997642;28;19921;-85
2021/07/30 07:11:52;;;;;;;;;;;17.30;99.90;;;;;;5014079;28;19947;-84
2021/07/30 07:14:18;;;;;;;;;;;17.30;99.90;;;;;;5030277;28;20463;-85
2021/07/30 07:16:43;;;;;;;;;;;17.30;99.90;;;;;;5032134;28;19929;-85
2021/07/30 07:19:09;;;;;;;;;;;17.30;99.90;;;;;;5016852;28;20047;-85
2021/07/30 07:21:38;;;;;;;;;;;17.30;99.90;;;;;;5017018;28;20380;-85
2021/07/30 07:24:04;;;;;;;;;;;17.40;99.90;;;;;;5033235;28;19932;-85
2021/07/30 07:26:29;;;;;;;;;;;17.40;99.90;;;;;;5033169;28;20300;-85
2021/07/30 07:28:56;;;;;;;;;;;17.50;99.90;;;;;;5017436;28;20368;-85
2021/07/30 07:31:22;;;;;;;;;;;17.60;99.90;;;;;;5015701;28;19930;-84
2021/07/30 07:33:47;;;;;;;;;;;17.60;99.90;;;;;;4996643;28;19971;-85
2021/07/30 07:36:13;;;;;;;;;;;17.60;99.90;;;;;;5013257;28;20423;-84
2021/07/30 07:38:39;;;;;;;;;;;17.70;99.90;;;;;;4996799;28;19933;-85
2021/07/30 07:41:04;;;;;;;;;;;17.70;99.90;;;;;;4997164;28;19924;-86
2021/07/30 07:43:35;;;;;;;;;;;17.80;99.90;;;;;;4998142;28;19929;-84
2021/07/30 07:46:00;;;;;;;;;;;17.80;99.90;;;;;;5009892;28;19933;-84
2021/07/30 07:48:26;;;;;;;;;;;17.80;99.90;;;;;;5009638;28;19929;-85
2021/07/30 07:50:51;;;;;;;;;;;17.90;99.90;;;;;;4993522;28;19925;-86
2021/07/30 07:53:18;;;;;;;;;;;17.90;99.90;;;;;;4993599;28;19972;-85
2021/07/30 07:55:44;;;;;;;;;;;18.00;99.90;;;;;;5029878;28;19939;-85
2021/07/30 07:58:10;;;;;;;;;;;18.00;99.90;;;;;;5013071;28;19925;-85
2021/07/30 08:00:36;;;;;;;;;;;18.00;99.90;;;;;;5029591;28;19925;-85
2021/07/30 08:03:02;;;;;;;;;;;18.10;99.90;;;;;;5030752;28;19925;-85
2021/07/30 08:05:28;;;;;;;;;;;18.10;99.90;;;;;;5012744;28;20032;-85
2021/07/30 08:07:54;;;;;;;;;;;18.10;99.90;;;;;;4996183;28;20011;-85
2021/07/30 08:10:21;;;;;;;;;;;18.10;99.90;;;;;;5012789;28;19929;-85
2021/07/30 08:12:47;;;;;;;;;;;18.10;99.90;;;;;;5019670;28;19925;-86
2021/07/30 08:15:13;;;;;;;;;;;18.20;99.90;;;;;;5029462;28;19925;-85
2021/07/30 08:17:38;;;;;;;;;;;18.20;99.90;;;;;;5027195;28;19921;-86
2021/07/30 08:20:05;;;;;;;;;;;18.20;99.90;;;;;;5030096;28;19976;-85
2021/07/30 08:22:31;;;;;;;;;;;18.30;99.90;;;;;;5012665;28;20395;-86
2021/07/30 08:24:56;;;;;;;;;;;18.30;99.90;;;;;;4996093;28;19968;-85
2021/07/30 08:27:22;;;;;;;;;;;18.40;99.90;;;;;;4980223;28;19917;-85
2021/07/30 08:29:48;;;;;;;;;;;18.40;99.90;;;;;;4980027;28;19929;-85
2021/07/30 08:32:15;;;;;;;;;;;18.40;99.90;;;;;;4995691;28;19921;-85
2021/07/30 08:34:41;;;;;;;;;;;18.50;99.90;;;;;;4996236;28;19925;-85
2021/07/30 08:37:07;;;;;;;;;;;18.50;99.90;;;;;;5030096;28;19925;-85
2021/07/30 08:39:33;;;;;;;;;;;18.50;99.90;;;;;;5011758;28;19928;-85
2021/07/30 08:41:59;;;;;;;;;;;18.50;99.90;;;;;;5012405;28;19925;-86
2021/07/30 08:44:26;;;;;;;;;;;18.50;99.90;;;;;;5012167;28;20415;-86
2021/07/30 08:46:52;;;;;;;;;;;18.50;99.90;;;;;;5012496;28;20442;-85
2021/07/30 08:49:18;;;;;;;;;;;18.60;99.90;;;;;;4995415;28;19925;-85
2021/07/30 08:51:45;;;;;;;;;;;18.60;99.90;;;;;;4999326;28;19975;-86
2021/07/30 08:54:11;;;;;;;;;;;18.60;99.90;;;;;;5011928;28;19925;-85
2021/07/30 08:56:37;;;;;;;;;;;18.70;99.90;;;;;;4995653;28;20552;-85
2021/07/30 08:59:09;;;;;;;;;;;18.70;99.90;;;;;;4995807;28;19952;-84
2021/07/30 09:01:35;;;;;;;;;;;18.70;99.90;;;;;;5012098;28;19925;-85
2021/07/30 09:04:01;;;;;;;;;;;18.70;99.90;;;;;;5011798;28;19975;-85
2021/07/30 09:06:27;;;;;;;;;;;18.80;99.90;;;;;;4995672;28;19925;-85
2021/07/30 09:08:56;;;;;;;;;;;18.80;99.90;;;;;;4995002;28;19987;-86
2021/07/30 09:11:37;;;;;;;;;;;18.80;99.90;;;;;;5011886;28;20103;-85
2021/07/30 09:14:04;;;;;;;;;;;18.80;99.90;;;;;;4992048;28;20483;-84
2021/07/30 09:16:30;;;;;;;;;;;18.80;99.90;;;;;;4991725;28;20604;-85
2021/07/30 09:19:04;;;;;;;;;;;18.80;99.90;;;;;;4993349;28;19975;-85
2021/07/30 09:21:30;;;;;;;;;;;18.90;99.90;;;;;;4995403;28;19971;-86
2021/07/30 09:23:58;;;;;;;;;;;19.00;99.90;;;;;;5012029;28;20344;-85
2021/07/30 09:26:30;;;;;;;;;;;19.00;99.90;;;;;;5011459;28;20614;-86
2021/07/30 09:28:56;;;;;;;;;;;19.10;99.90;;;;;;5011967;28;20336;-85
2021/07/30 09:31:33;;;;;;;;;;;19.10;99.90;;;;;;5011226;28;19931;-85
2021/07/30 09:34:09;;;;;;;;;;;19.20;99.90;;;;;;5029398;28;19921;-85
2021/07/30 09:36:45;;;;;;;;;;;19.30;99.90;;;;;;5011281;28;19921;-85
2021/07/30 09:39:10;;;;;;;;;;;19.30;99.90;;;;;;5011509;28;20012;-86
2021/07/30 09:41:36;;;;;;;;;;;19.30;99.90;;;;;;5010541;28;19933;-86
2021/07/30 09:44:06;;;;;;;;;;;19.20;99.90;;;;;;4995096;28;19986;-85
2021/07/30 09:46:32;;;;;;;;;;;19.30;99.90;;;;;;5028907;28;19932;-86
2021/07/30 09:48:57;;;;;;;;;;;19.30;99.90;;;;;;4995458;28;19925;-85
2021/07/30 09:51:24;;;;;;;;;;;19.30;99.90;;;;;;5014460;28;19933;-85
2021/07/30 09:53:50;;;;;;;;;;;19.40;99.90;;;;;;5011736;28;19921;-85
2021/07/30 09:56:16;;;;;;;;;;;19.40;99.90;;;;;;5010945;28;19932;-85
2021/07/30 09:58:46;;;;;;;;;;;19.40;99.90;;;;;;5012100;28;20297;-85
2021/07/30 10:01:14;;;;;;;;;;;19.50;99.90;;;;;;5010935;28;19925;-85
2021/07/30 10:03:41;;;;;;;;;;;19.50;99.90;;;;;;5011589;28;20549;-85
2021/07/30 10:06:07;;;;;;;;;;;19.50;99.90;;;;;;4994762;28;20044;-83
2021/07/30 10:08:33;;;;;;;;;;;19.50;99.90;;;;;;4994874;28;19928;-86
2021/07/30 10:10:59;;;;;;;;;;;19.60;99.90;;;;;;5010596;28;20327;-85
2021/07/30 10:13:35;;;;;;;;;;;19.50;99.90;;;;;;4994669;28;20300;-86
2021/07/30 10:16:04;;;;;;;;;;;19.60;99.90;;;;;;4996121;28;19936;-84
2021/07/30 10:18:30;;;;;;;;;;;19.50;99.90;;;;;;4995016;28;19929;-84
2021/07/30 10:20:58;;;;;;;;;;;19.50;99.90;;;;;;4978814;28;19921;-84
2021/07/30 10:23:24;;;;;;;;;;;19.50;99.90;;;;;;5010970;28;19921;-85
2021/07/30 10:25:54;;;;;;;;;;;19.50;99.90;;;;;;4994720;28;19931;-86
2021/07/30 10:28:25;;;;;;;;;;;19.50;99.90;;;;;;5027622;28;19924;-86
2021/07/30 10:31:01;;;;;;;;;;;19.50;99.90;;;;;;5011113;28;20027;-86
2021/07/30 10:33:31;;;;;;;;;;;19.50;99.90;;;;;;4994204;28;19925;-85
2021/07/30 10:35:57;;;;;;;;;;;19.50;99.90;;;;;;5028714;28;19939;-86
2021/07/30 10:38:24;;;;;;;;;;;19.50;99.90;;;;;;4994684;28;19925;-85
2021/07/30 10:40:55;;;;;;;;;;;19.50;99.90;;;;;;4991865;28;19994;-85
2021/07/30 10:43:33;;;;;;;;;;;19.60;99.90;;;;;;4986327;28;20039;-85
2021/07/30 10:46:05;;;;;;;;;;;19.80;99.90;;;;;;5008928;28;19929;-85
2021/07/30 10:48:31;;;;;;;;;;;19.90;99.90;;;;;;5002992;28;19924;-85
2021/07/30 10:50:59;;;;;;;;;;;20.00;99.90;;;;;;5019122;28;20300;-85
2021/07/30 10:53:34;;;;;;;;;;;20.10;99.90;;;;;;4978253;28;19940;-85
2021/07/30 10:56:04;;;;;;;;;;;20.10;99.90;;;;;;5003204;28;19921;-85
2021/07/30 10:58:39;;;;;;;;;;;20.20;99.90;;;;;;4999208;28;19957;-84
2021/07/30 11:01:05;;;;;;;;;;;20.30;99.90;;;;;;5003518;28;20399;-85
2021/07/30 11:03:53;;;;;;;;;;;20.40;99.90;;;;;;4985003;28;19925;-84
2021/07/30 11:06:24;;;;;;;;;;;20.60;99.90;;;;;;5021527;28;19925;-84
2021/07/30 11:08:59;;;;;;;;;;;20.60;99.90;;;;;;5022504;28;19990;-83
2021/07/30 11:11:49;;;;;;;;;;;20.60;99.90;;;;;;4985641;28;19936;-85
2021/07/30 11:14:17;;;;;;;;;;;20.60;99.90;;;;;;5014997;28;19928;-84
2021/07/30 11:16:44;;;;;;;;;;;20.70;99.90;;;;;;5001563;28;19934;-85
2021/07/30 11:19:10;;;;;;;;;;;20.70;99.90;;;;;;4993193;28;19978;-86
2021/07/30 11:21:36;;;;;;;;;;;20.60;99.90;;;;;;4991001;28;19936;-85
2021/07/30 11:24:02;;;;;;;;;;;20.60;99.90;;;;;;5011473;28;20015;-86
2021/07/30 11:26:28;;;;;;;;;;;20.60;99.90;;;;;;5000501;28;19972;-85
2021/07/30 11:29:02;;;;;;;;;;;20.60;99.90;;;;;;4994482;28;19926;-86
2021/07/30 11:31:28;;;;;;;;;;;20.60;99.90;;;;;;4994328;28;19925;-85
2021/07/30 11:33:55;;;;;;;;;;;20.50;99.90;;;;;;4977383;28;19935;-85
2021/07/30 11:36:21;;;;;;;;;;;20.50;99.90;;;;;;4977962;28;19925;-86
2021/07/30 11:38:54;;;;;;;;;;;20.50;99.90;;;;;;4993827;28;19929;-85
2021/07/30 11:41:21;;;;;;;;;;;20.50;99.90;;;;;;4993670;28;20016;-85
2021/07/30 11:43:59;;;;;;;;;;;20.60;99.90;;;;;;4993657;28;20313;-85
2021/07/30 11:46:26;;;;;;;;;;;20.60;99.90;;;;;;4993486;28;19929;-85
2021/07/30 11:48:51;;;;;;;;;;;20.60;99.90;;;;;;4977734;28;19926;-85
2021/07/30 11:51:20;;;;;;;;;;;20.60;99.90;;;;;;5003201;28;19932;-85
2021/07/30 11:53:50;;;;;;;;;;;20.70;99.90;;;;;;5013250;28;20044;-85
2021/07/30 11:56:34;;;;;;;;;;;20.80;99.90;;;;;;5013108;28;19921;-85
2021/07/30 11:59:15;;;;;;;;;;;20.90;99.90;;;;;;5031011;28;20400;-84
2021/07/30 12:02:44;;;;;;;;;;;21.10;99.90;;;;;;5029192;28;19925;-84
2021/07/30 12:05:03;;;;;;;;;;;21.20;99.90;;;;;;5024449;28;20041;-85
2021/07/30 12:07:36;;;;;;;;;;;21.30;99.90;;;;;;5012921;28;19948;-85
2021/07/30 12:10:10;;;;;;;;;;;21.40;99.90;;;;;;4996267;28;19921;-84
2021/07/30 12:12:42;;;;;;;;;;;21.50;99.90;;;;;;5030393;28;19924;-86
2021/07/30 12:15:17;;;;;;;;;;;21.70;99.90;;;;;;4996220;28;19968;-86
2021/07/30 12:17:49;;;;;;;;;;;21.80;99.90;;;;;;5031132;28;19965;-85
2021/07/30 12:20:18;;;;;;;;;;;21.80;99.90;;;;;;5012692;28;19926;-86
2021/07/30 12:22:44;;;;;;;;;;;21.80;99.90;;;;;;5012546;28;19925;-85
2021/07/30 12:25:17;;;;;;;;;;;21.80;99.90;;;;;;4996372;28;19921;-85
2021/07/30 12:27:43;;;;;;;;;;;21.80;99.90;;;;;;5009528;28;19924;-84
2021/07/30 12:30:25;;;;;;;;;;;21.80;99.90;;;;;;5020438;28;19932;-85
2021/07/30 12:32:51;;;;;;;;;;;21.80;99.90;;;;;;5008755;28;19925;-84
2021/07/30 12:35:18;;;;;;;;;;;21.70;99.90;;;;;;5022063;28;19932;-84
2021/07/30 12:38:02;;;;;;;;;;;21.70;99.90;;;;;;5004729;28;19937;-85
2021/07/30 12:40:28;;;;;;;;;;;21.60;99.90;;;;;;5011614;28;19925;-85
2021/07/30 12:43:09;;;;;;;;;;;21.60;99.90;;;;;;4994723;28;19936;-83
2021/07/30 12:45:47;;;;;;;;;;;21.60;99.90;;;;;;5000376;28;20004;-83
2021/07/30 12:48:20;;;;;;;;;;;21.50;99.90;;;;;;4985715;28;19925;-84
2021/07/30 12:50:46;;;;;;;;;;;21.50;99.90;;;;;;4995116;28;20449;-84
2021/07/30 12:53:17;;;;;;;;;;;21.40;99.90;;;;;;5004428;28;19977;-84
2021/07/30 12:56:00;;;;;;;;;;;21.40;99.90;;;;;;5009510;28;20293;-85
2021/07/30 12:58:29;;;;;;;;;;;21.40;99.90;;;;;;5019082;28;19929;-85
2021/07/30 13:00:55;;;;;;;;;;;21.40;99.90;;;;;;5002318;28;19925;-85
2021/07/30 13:03:21;;;;;;;;;;;21.50;99.90;;;;;;5012324;28;19932;-84
2021/07/30 13:05:51;;;;;;;;;;;21.50;99.90;;;;;;4995673;28;19929;-83
2021/07/30 13:08:17;;;;;;;;;;;21.60;99.90;;;;;;5004713;28;19929;-84
2021/07/30 13:10:42;;;;;;;;;;;21.70;99.90;;;;;;5017830;28;20614;-84
2021/07/30 13:13:08;;;;;;;;;;;21.70;99.90;;;;;;5022172;28;19933;-84
2021/07/30 13:15:34;;;;;;;;;;;21.70;99.90;;;;;;5000685;28;20469;-84
2021/07/30 13:17:59;;;;;;;;;;;21.70;99.90;;;;;;4999314;28;19929;-84
2021/07/30 13:20:25;;;;;;;;;;;21.70;99.90;;;;;;5019427;28;19931;-84
2021/07/30 13:22:51;;;;;;;;;;;21.70;99.90;;;;;;4983865;28;20396;-84
2021/07/30 13:25:29;;;;;;;;;;;21.70;99.90;;;;;;4984971;28;19925;-84
2021/07/30 13:27:54;;;;;;;;;;;21.70;99.90;;;;;;5019605;28;19924;-84
2021/07/30 13:30:20;;;;;;;;;;;21.60;99.90;;;;;;4970071;28;20343;-84
2021/07/30 13:32:47;;;;;;;;;;;21.60;99.90;;;;;;4983930;28;19925;-84
2021/07/30 13:35:13;;;;;;;;;;;21.70;99.90;;;;;;4993089;28;20419;-83
2021/07/30 13:37:39;;;;;;;;;;;21.80;99.90;;;;;;5002661;28;20395;-84
2021/07/30 13:40:05;;;;;;;;;;;21.90;99.90;;;;;;5018058;28;19925;-84
2021/07/30 13:42:31;;;;;;;;;;;21.90;99.90;;;;;;4968307;28;19968;-84
2021/07/30 13:44:56;;;;;;;;;;;21.80;99.90;;;;;;4981364;28;20047;-83
2021/07/30 13:47:22;;;;;;;;;;;21.80;99.90;;;;;;4998813;28;19965;-84
2021/07/30 13:49:48;;;;;;;;;;;21.70;99.90;;;;;;4998297;28;19921;-84
2021/07/30 13:52:14;;;;;;;;;;;21.70;99.90;;;;;;5002379;28;19926;-84
2021/07/30 13:54:41;;;;;;;;;;;21.60;99.90;;;;;;4997736;28;19926;-84
2021/07/30 13:57:08;;;;;;;;;;;21.50;99.90;;;;;;4999027;28;19933;-84
2021/07/30 13:59:35;;;;;;;;;;;21.40;99.90;;;;;;4998685;28;19934;-85
2021/07/30 14:02:00;;;;;;;;;;;21.30;99.90;;;;;;4988019;28;19925;-84
2021/07/30 14:04:26;;;;;;;;;;;21.20;99.90;;;;;;4994776;28;19922;-84
2021/07/30 14:06:52;;;;;;;;;;;21.10;99.90;;;;;;4997474;28;20377;-83
2021/07/30 14:09:18;;;;;;;;;;;21.00;99.90;;;;;;4997601;28;19931;-83
2021/07/30 14:11:43;;;;;;;;;;;20.90;99.90;;;;;;4997569;28;20457;-83
2021/07/30 14:14:09;;;;;;;;;;;20.80;99.90;;;;;;4998506;28;20436;-83
2021/07/30 14:16:35;;;;;;;;;;;20.80;99.90;;;;;;4997028;28;19926;-82